Main page
METAR-TAF:

METAR-TAF

Airports :

Savannakhet Airport

Savannakhet, Laos

latitude: 16-33-24N, longitude: 104-45-34E, elevation: 155 m

Current weather observation

The report was made 1 hour and 8 minutes ago, at 09:00 UTC
Wind 2 kt from the East/Southeast
Temperature 34°C
Humidity 23%
Pressure 1012 hPa
Visibility: 9000 m
Few clouds at a height of 2000 ft

METAR: VLSK 240900Z 12002KT 9000 FEW020 34/10 Q1012 NOSIG

Time: 17:08 (10:08 UTC)

Forecast

The report was made 5 hours and 8 minutes ago, at 05:00 UTC
Forecast valid from 24 at 06 UTC to 25 at 06 UTC
Wind 4 kt from the East/Northeast
Visibility: 9000 m
Few clouds at a height of 2000 ft
Few clouds at a height of 10000 ft

TAF: VLSK 240500Z 2406/2506 06004KT 9000 FEW020 FEW100

Weather observations and forecasts of more than 4000 airports (METAR and TAF reports).

The available stations are represented by yellow and red dots on the map.

Hover mouse over dot to see the name of the station.

Then click to see weather observations and forecasts.

To change the map : click on the green buttons with a black cross to zoom in, on the green button with a dash to zoom out, or on the green arrows for adjacent maps.


METAR-TAF: